createdAt,value
2017-12-17T00:00:04.367Z,19.77
2017-12-17T00:02:31.930Z,19.23
2017-12-17T00:04:59.499Z,19.97
2017-12-17T00:07:27.185Z,21.60
2017-12-17T00:09:54.804Z,21.97
2017-12-17T00:12:22.362Z,21.30
2017-12-17T00:14:49.969Z,21.27
2017-12-17T00:17:18.321Z,21.57
2017-12-17T00:19:45.940Z,22.40
2017-12-17T00:22:14.198Z,22.80
2017-12-17T00:24:41.742Z,21.40
2017-12-17T00:27:10.069Z,22.10
2017-12-17T00:29:37.648Z,23.47
2017-12-17T00:32:05.328Z,22.80
2017-12-17T00:34:32.875Z,23.70
2017-12-17T00:37:00.482Z,23.20
2017-12-17T00:39:28.095Z,22.40
2017-12-17T00:41:55.673Z,22.27
2017-12-17T00:44:23.234Z,21.90
2017-12-17T00:46:50.939Z,21.70
2017-12-17T00:49:18.504Z,22.23
2017-12-17T00:51:46.065Z,21.20
2017-12-17T00:54:13.650Z,19.17
2017-12-17T00:56:41.193Z,21.63
2017-12-17T00:59:08.771Z,22.03
2017-12-17T01:01:36.330Z,23.90
2017-12-17T01:04:03.919Z,21.97
2017-12-17T01:06:31.517Z,22.90
2017-12-17T01:08:59.097Z,18.90
2017-12-17T01:11:26.646Z,20.87
2017-12-17T01:13:54.222Z,23.00
2017-12-17T01:16:21.842Z,21.60
2017-12-17T01:18:50.239Z,20.90
2017-12-17T01:21:17.817Z,19.97
2017-12-17T01:23:45.435Z,22.10
2017-12-17T01:26:13.873Z,20.90
2017-12-17T01:28:41.426Z,19.53
2017-12-17T01:31:09.010Z,19.87
2017-12-17T01:33:36.560Z,22.57
2017-12-17T01:36:04.218Z,20.93
2017-12-17T01:38:31.879Z,21.73
2017-12-17T01:40:59.479Z,22.00
2017-12-17T01:43:27.041Z,21.60
2017-12-17T01:45:54.623Z,22.13
2017-12-17T01:48:22.985Z,24.10
2017-12-17T01:50:51.909Z,17.67
2017-12-17T01:53:19.466Z,20.90
2017-12-17T01:55:47.021Z,18.80
2017-12-17T01:58:14.685Z,18.10
2017-12-17T02:00:42.639Z,18.63
2017-12-17T02:03:10.993Z,19.27
2017-12-17T02:05:38.552Z,20.30
2017-12-17T02:08:06.298Z,21.23
2017-12-17T02:10:33.843Z,20.37
2017-12-17T02:13:01.433Z,19.63
2017-12-17T02:15:29.005Z,20.80
2017-12-17T02:17:56.545Z,19.47
2017-12-17T02:20:24.111Z,18.73
2017-12-17T02:22:51.686Z,19.40
2017-12-17T02:25:19.502Z,19.63
2017-12-17T02:27:47.037Z,20.00
2017-12-17T02:30:15.401Z,19.17
2017-12-17T02:32:42.935Z,19.70
2017-12-17T02:35:10.480Z,21.27
2017-12-17T02:37:38.033Z,19.27
2017-12-17T02:40:05.605Z,20.10
2017-12-17T02:42:33.151Z,18.20
2017-12-17T02:45:00.747Z,20.43
2017-12-17T02:47:28.341Z,21.30
2017-12-17T02:49:56.689Z,19.67
2017-12-17T02:52:24.242Z,20.53
2017-12-17T02:54:51.801Z,20.30
2017-12-17T02:57:19.373Z,20.23
2017-12-17T02:59:46.953Z,22.03
2017-12-17T03:02:15.256Z,19.40
2017-12-17T03:04:42.804Z,20.50
2017-12-17T03:07:10.462Z,21.70
2017-12-17T03:09:38.791Z,22.37
2017-12-17T03:12:06.366Z,19.63
2017-12-17T03:14:33.917Z,20.50
2017-12-17T03:17:01.503Z,20.53
2017-12-17T03:19:29.062Z,21.20
2017-12-17T03:21:56.608Z,21.97
2017-12-17T03:24:24.242Z,20.70
2017-12-17T03:26:52.559Z,19.60
2017-12-17T03:29:20.107Z,18.40
2017-12-17T03:31:47.695Z,18.73
2017-12-17T03:34:16.014Z,20.67
2017-12-17T03:36:43.562Z,20.33
2017-12-17T03:39:11.134Z,19.43
2017-12-17T03:41:38.682Z,19.40
2017-12-17T03:44:06.236Z,20.13
2017-12-17T03:46:33.781Z,19.83
2017-12-17T03:49:02.118Z,20.47
2017-12-17T03:51:29.761Z,19.47
2017-12-17T03:53:57.335Z,20.70
2017-12-17T03:56:24.895Z,19.93
2017-12-17T03:58:52.545Z,20.97
2017-12-17T04:01:20.890Z,20.70
2017-12-17T04:03:48.445Z,20.80
2017-12-17T04:06:16.757Z,21.70
2017-12-17T04:08:44.297Z,21.13
2017-12-17T04:11:12.661Z,20.10
2017-12-17T04:13:41.000Z,20.53
2017-12-17T04:16:08.585Z,21.57
2017-12-17T04:18:36.146Z,20.80
2017-12-17T04:21:03.738Z,18.67
2017-12-17T04:23:31.291Z,21.70
2017-12-17T04:25:59.633Z,22.53
2017-12-17T04:28:27.192Z,20.50
2017-12-17T04:30:54.801Z,21.73
2017-12-17T04:33:23.104Z,22.00
2017-12-17T04:35:50.675Z,20.70
2017-12-17T04:38:18.245Z,21.97
2017-12-17T04:40:45.790Z,22.67
2017-12-17T04:43:13.365Z,17.73
2017-12-17T04:45:40.905Z,20.00
2017-12-17T04:48:08.477Z,20.67
2017-12-17T04:50:36.017Z,20.20
2017-12-17T04:53:03.586Z,21.30
2017-12-17T04:55:31.134Z,18.37
2017-12-17T04:57:58.741Z,20.57
2017-12-17T05:00:26.320Z,18.20
2017-12-17T05:02:54.688Z,20.33
2017-12-17T05:05:22.253Z,18.17
2017-12-17T05:07:50.605Z,20.87
2017-12-17T05:10:18.182Z,18.60
2017-12-17T05:12:45.767Z,19.60
2017-12-17T05:15:14.107Z,20.77
2017-12-17T05:17:41.687Z,21.63
2017-12-17T05:20:09.256Z,19.63
2017-12-17T05:22:37.571Z,21.93
2017-12-17T05:25:05.134Z,19.20
2017-12-17T05:27:32.702Z,21.37
2017-12-17T05:30:00.377Z,20.30
2017-12-17T05:32:27.915Z,20.40
2017-12-17T05:34:55.492Z,20.37
2017-12-17T05:37:23.041Z,20.83
2017-12-17T05:39:51.391Z,20.80
2017-12-17T05:42:19.726Z,19.17
2017-12-17T05:44:47.270Z,20.30
2017-12-17T05:47:14.854Z,22.07
2017-12-17T05:49:42.460Z,22.13
2017-12-17T05:52:10.808Z,21.60
2017-12-17T05:54:38.369Z,20.90
2017-12-17T05:57:05.940Z,21.27
2017-12-17T05:59:34.382Z,21.20
2017-12-17T06:02:01.930Z,20.97
2017-12-17T06:04:29.506Z,20.20
2017-12-17T06:06:57.207Z,19.63
2017-12-17T06:09:25.631Z,20.50
2017-12-17T06:11:53.173Z,20.50
2017-12-17T06:14:20.754Z,20.43
2017-12-17T06:16:48.415Z,19.10
2017-12-17T06:19:15.989Z,18.57
2017-12-17T06:21:43.553Z,17.03
2017-12-17T06:24:11.109Z,17.20
2017-12-17T06:26:38.664Z,17.53
2017-12-17T06:29:06.247Z,16.97
2017-12-17T06:31:33.801Z,16.27
2017-12-17T06:34:01.358Z,16.80
2017-12-17T06:36:28.939Z,16.47
2017-12-17T06:38:56.519Z,17.23
2017-12-17T06:41:24.059Z,15.87
2017-12-17T06:43:51.632Z,15.20
2017-12-17T06:46:19.283Z,16.60
2017-12-17T06:48:46.864Z,16.37
2017-12-17T06:51:15.192Z,16.17
2017-12-17T06:53:42.814Z,16.37
2017-12-17T06:56:11.147Z,16.00
2017-12-17T06:58:38.720Z,18.57
2017-12-17T07:01:06.268Z,17.97
2017-12-17T07:03:33.854Z,16.07
2017-12-17T07:06:01.416Z,16.97
2017-12-17T07:08:28.987Z,16.17
2017-12-17T07:10:56.560Z,17.20
2017-12-17T07:13:24.863Z,16.43
2017-12-17T07:15:52.474Z,17.13
2017-12-17T07:18:20.050Z,17.07
2017-12-17T07:20:48.374Z,16.77
2017-12-17T07:23:15.938Z,16.67
2017-12-17T07:25:43.847Z,16.80
2017-12-17T07:28:11.377Z,17.90
2017-12-17T07:30:38.953Z,21.47
2017-12-17T07:33:06.522Z,21.40
2017-12-17T07:35:34.182Z,19.47
2017-12-17T07:38:01.739Z,21.60
2017-12-17T07:40:29.282Z,20.63
2017-12-17T07:42:56.851Z,20.30
2017-12-17T07:45:24.558Z,20.37
2017-12-17T07:47:52.898Z,18.03
2017-12-17T07:50:20.456Z,19.30
2017-12-17T07:52:48.047Z,18.17
2017-12-17T07:55:16.430Z,16.23
2017-12-17T07:57:44.761Z,16.80
2017-12-17T08:00:12.335Z,20.40
2017-12-17T08:02:39.897Z,17.33
2017-12-17T08:05:07.506Z,15.30
2017-12-17T08:07:35.837Z,17.20
2017-12-17T08:10:03.428Z,15.60
2017-12-17T08:12:31.771Z,16.73
2017-12-17T08:14:59.362Z,17.70
2017-12-17T08:17:27.762Z,15.77
2017-12-17T08:19:56.100Z,16.40
2017-12-17T08:22:23.674Z,14.80
2017-12-17T08:24:51.363Z,14.67
2017-12-17T08:27:19.713Z,15.97
2017-12-17T08:29:47.269Z,14.67
2017-12-17T08:32:14.856Z,16.73
2017-12-17T08:34:43.177Z,18.10
2017-12-17T08:37:10.759Z,17.17
2017-12-17T08:39:38.351Z,17.17
2017-12-17T08:42:06.711Z,17.03
2017-12-17T08:44:34.279Z,16.97
2017-12-17T08:47:01.902Z,17.13
2017-12-17T08:49:29.473Z,16.10
2017-12-17T08:51:57.066Z,17.20
2017-12-17T08:54:25.398Z,17.40
2017-12-17T08:56:52.954Z,18.30
2017-12-17T08:59:20.530Z,18.10
2017-12-17T09:01:48.113Z,21.50
2017-12-17T09:04:15.681Z,18.63
2017-12-17T09:06:43.237Z,19.50
2017-12-17T09:09:10.809Z,18.97
2017-12-17T09:11:39.152Z,19.77
2017-12-17T09:14:06.751Z,20.40
2017-12-17T09:16:34.313Z,20.30
2017-12-17T09:19:01.896Z,20.20
2017-12-17T09:21:29.464Z,21.70
2017-12-17T09:23:57.064Z,20.93
2017-12-17T09:26:24.622Z,19.93
2017-12-17T09:28:52.313Z,21.93
2017-12-17T09:31:19.869Z,19.50
2017-12-17T09:33:47.453Z,19.27
2017-12-17T09:36:15.772Z,19.83
2017-12-17T09:38:43.357Z,20.73
2017-12-17T09:41:11.186Z,20.53
2017-12-17T09:43:38.767Z,21.87
2017-12-17T09:46:06.378Z,20.30
2017-12-17T09:48:34.694Z,20.53
2017-12-17T09:51:02.292Z,21.83
2017-12-17T09:53:29.854Z,23.47
2017-12-17T09:55:57.425Z,20.77
2017-12-17T09:58:25.004Z,22.43
2017-12-17T10:00:53.309Z,18.90
2017-12-17T10:03:20.893Z,19.90
2017-12-17T10:05:48.469Z,20.53
2017-12-17T10:08:16.070Z,20.57
2017-12-17T10:10:44.406Z,22.10
2017-12-17T10:13:11.985Z,20.23
2017-12-17T10:15:39.532Z,21.87
2017-12-17T10:18:07.194Z,22.83
2017-12-17T10:20:34.778Z,22.37
2017-12-17T10:23:03.177Z,23.50
2017-12-17T10:25:31.498Z,21.37
2017-12-17T10:27:59.123Z,20.70
2017-12-17T10:30:26.739Z,18.37
2017-12-17T10:32:54.295Z,16.60
2017-12-17T10:35:21.912Z,19.77
2017-12-17T10:37:49.482Z,19.40
2017-12-17T10:40:17.073Z,18.37
2017-12-17T10:42:44.676Z,19.63
2017-12-17T10:45:13.015Z,17.90
2017-12-17T10:47:40.602Z,20.67
2017-12-17T10:50:08.174Z,19.70
2017-12-17T10:52:36.602Z,20.40
2017-12-17T10:55:04.211Z,18.27
2017-12-17T10:57:31.841Z,18.47
2017-12-17T10:59:59.402Z,19.17
2017-12-17T11:02:26.981Z,17.13
2017-12-17T11:04:54.534Z,17.30
2017-12-17T11:07:22.133Z,17.70
2017-12-17T11:09:50.504Z,16.93
2017-12-17T11:12:25.737Z,18.23
2017-12-17T11:14:53.277Z,19.60
2017-12-17T11:17:24.139Z,18.07
2017-12-17T11:19:52.555Z,16.40
2017-12-17T11:22:20.111Z,17.60
2017-12-17T11:24:47.962Z,15.20
2017-12-17T11:27:15.525Z,15.70
2017-12-17T11:29:43.093Z,17.33
2017-12-17T11:32:10.694Z,16.93
2017-12-17T11:34:39.069Z,14.93
2017-12-17T11:37:06.638Z,15.33
2017-12-17T11:39:34.212Z,14.53
2017-12-17T11:42:02.633Z,16.40
2017-12-17T11:44:30.245Z,15.70
2017-12-17T11:46:57.882Z,14.57
2017-12-17T11:49:25.483Z,16.17
2017-12-17T11:51:53.093Z,15.83
2017-12-17T11:54:20.677Z,14.47
2017-12-17T11:56:48.274Z,16.00
2017-12-17T11:59:16.614Z,16.33
2017-12-17T12:01:44.268Z,16.30
2017-12-17T12:04:11.840Z,15.90
2017-12-17T12:06:39.423Z,17.10
2017-12-17T12:09:06.975Z,17.80
2017-12-17T12:11:34.605Z,17.97
2017-12-17T12:14:02.182Z,16.63
2017-12-17T12:16:29.778Z,15.73
2017-12-17T12:18:57.348Z,17.37
2017-12-17T12:21:25.823Z,18.33
2017-12-17T12:23:54.192Z,16.57
2017-12-17T12:26:21.779Z,16.60
2017-12-17T12:28:50.132Z,16.10
2017-12-17T12:31:17.797Z,16.40
2017-12-17T12:33:45.378Z,15.53
2017-12-17T12:36:13.704Z,17.60
2017-12-17T12:38:41.283Z,19.73
2017-12-17T12:41:09.012Z,18.43
2017-12-17T12:43:39.364Z,19.13
2017-12-17T12:46:06.923Z,18.60
2017-12-17T12:48:34.516Z,16.50
2017-12-17T12:51:02.108Z,15.30
2017-12-17T12:53:29.709Z,17.93
2017-12-17T12:55:57.289Z,17.43
2017-12-17T12:58:24.876Z,23.63
2017-12-17T13:00:53.313Z,18.20
2017-12-17T13:03:20.857Z,18.20
2017-12-17T13:05:48.436Z,17.10
2017-12-17T13:08:16.012Z,18.00
2017-12-17T13:10:43.557Z,17.33
2017-12-17T13:13:11.128Z,18.17
2017-12-17T13:15:38.741Z,15.77
2017-12-17T13:18:06.318Z,15.30
2017-12-17T13:20:33.890Z,17.07
2017-12-17T13:23:01.466Z,14.97
2017-12-17T13:25:29.038Z,17.10
2017-12-17T13:27:56.621Z,19.00
2017-12-17T13:30:25.241Z,17.20
2017-12-17T13:32:52.799Z,17.80
2017-12-17T13:35:20.350Z,17.30
2017-12-17T13:37:47.942Z,17.17
2017-12-17T13:40:15.533Z,16.63
2017-12-17T13:42:43.132Z,15.70
2017-12-17T13:45:10.705Z,16.50
2017-12-17T13:47:38.288Z,17.83
2017-12-17T13:50:05.907Z,17.57
2017-12-17T13:52:33.465Z,17.60
2017-12-17T13:55:01.708Z,18.30
2017-12-17T13:57:29.254Z,16.17
2017-12-17T13:59:56.839Z,17.13
2017-12-17T14:02:24.381Z,14.53
2017-12-17T14:04:52.128Z,15.43
2017-12-17T14:07:19.671Z,16.80
2017-12-17T14:09:47.265Z,14.63
2017-12-17T14:12:14.865Z,14.33
2017-12-17T14:14:43.197Z,15.20
2017-12-17T14:17:10.785Z,15.63
2017-12-17T14:19:39.237Z,15.33
2017-12-17T14:22:06.830Z,16.90
2017-12-17T14:24:34.397Z,15.63
2017-12-17T14:27:02.006Z,18.60
2017-12-17T14:29:29.558Z,19.27
2017-12-17T14:31:57.138Z,17.07
2017-12-17T14:34:24.704Z,18.00
2017-12-17T14:36:52.295Z,16.90
2017-12-17T14:39:19.831Z,14.23
2017-12-17T14:41:47.399Z,16.07
2017-12-17T14:44:15.049Z,14.60
2017-12-17T14:46:42.610Z,15.20
2017-12-17T14:49:10.201Z,14.70
2017-12-17T14:51:37.757Z,17.40
2017-12-17T14:54:06.078Z,15.87
2017-12-17T14:56:33.669Z,14.53
2017-12-17T14:59:01.255Z,16.00
2017-12-17T15:01:28.916Z,15.57
2017-12-17T15:03:56.482Z,15.80
2017-12-17T15:06:24.842Z,14.53
2017-12-17T15:08:52.400Z,14.10
2017-12-17T15:11:20.031Z,14.20
2017-12-17T15:13:47.720Z,12.47
2017-12-17T15:16:15.283Z,12.23
2017-12-17T15:18:42.853Z,13.67
2017-12-17T15:21:10.418Z,12.10
2017-12-17T15:23:38.141Z,12.30
2017-12-17T15:26:05.721Z,10.70
2017-12-17T15:28:33.283Z,12.40
2017-12-17T15:31:00.881Z,13.90
2017-12-17T15:33:29.244Z,12.93
2017-12-17T15:35:56.837Z,13.93
2017-12-17T15:38:25.172Z,15.00
2017-12-17T15:40:52.757Z,15.10
2017-12-17T15:43:21.193Z,14.20
2017-12-17T15:45:49.521Z,16.90
2017-12-17T15:48:17.858Z,17.10
2017-12-17T15:50:45.485Z,15.70
2017-12-17T15:53:13.125Z,16.20
2017-12-17T15:55:41.489Z,14.97
2017-12-17T15:58:09.073Z,16.30
2017-12-17T16:00:37.433Z,16.07
2017-12-17T16:03:05.130Z,16.00
2017-12-17T16:05:32.713Z,18.03
2017-12-17T16:08:00.286Z,17.70
2017-12-17T16:10:27.860Z,15.53
2017-12-17T16:12:55.462Z,15.67
2017-12-17T16:15:23.786Z,14.13
2017-12-17T16:17:51.331Z,11.50
2017-12-17T16:20:18.933Z,12.97
2017-12-17T16:22:46.512Z,12.00
2017-12-17T16:25:14.862Z,12.50
2017-12-17T16:27:42.420Z,11.20
2017-12-17T16:30:10.010Z,12.83
2017-12-17T16:32:38.362Z,11.53
2017-12-17T16:35:05.941Z,13.27
2017-12-17T16:37:33.511Z,10.30
2017-12-17T16:40:01.962Z,11.57
2017-12-17T16:42:29.574Z,13.03
2017-12-17T16:44:57.149Z,12.27
2017-12-17T16:47:24.757Z,11.60
2017-12-17T16:49:52.406Z,13.30
2017-12-17T16:52:20.702Z,13.10
2017-12-17T16:54:48.282Z,12.53
2017-12-17T16:57:18.926Z,12.07
2017-12-17T16:59:47.292Z,13.00
2017-12-17T17:02:14.886Z,12.60
2017-12-17T17:04:42.456Z,12.17
2017-12-17T17:07:10.051Z,13.53
2017-12-17T17:09:37.682Z,12.93
2017-12-17T17:12:05.280Z,15.20
2017-12-17T17:14:32.904Z,12.43
2017-12-17T17:17:00.477Z,16.50
2017-12-17T17:19:28.078Z,13.93
2017-12-17T17:21:56.429Z,13.40
2017-12-17T17:24:24.018Z,12.60
2017-12-17T17:26:51.585Z,14.83
2017-12-17T17:29:19.949Z,13.43
2017-12-17T17:31:47.506Z,14.30
2017-12-17T17:34:15.124Z,12.87
2017-12-17T17:36:42.732Z,14.93
2017-12-17T17:39:10.357Z,16.90
2017-12-17T17:41:37.928Z,16.10
2017-12-17T17:44:05.538Z,16.97
2017-12-17T17:46:33.902Z,16.80
2017-12-17T17:49:02.245Z,16.10
2017-12-17T17:51:29.911Z,15.07
2017-12-17T17:53:57.629Z,18.03
2017-12-17T17:56:26.006Z,18.93
2017-12-17T17:58:54.375Z,15.10
2017-12-17T18:01:22.693Z,17.70
2017-12-17T18:03:50.298Z,18.03
2017-12-17T18:06:17.879Z,17.03
2017-12-17T18:08:46.246Z,18.80
2017-12-17T18:11:13.825Z,17.77
2017-12-17T18:13:42.282Z,17.00
2017-12-17T18:16:09.860Z,16.40
2017-12-17T18:18:38.223Z,16.03
2017-12-17T18:21:05.854Z,17.57
2017-12-17T18:23:33.583Z,15.77
2017-12-17T18:26:01.142Z,15.60
2017-12-17T18:28:34.073Z,16.23
2017-12-17T18:31:01.686Z,14.73
2017-12-17T18:33:29.434Z,14.30
2017-12-17T18:35:57.783Z,18.10
2017-12-17T18:38:25.356Z,14.47
2017-12-17T18:40:52.975Z,16.00
2017-12-17T18:43:20.635Z,13.17
2017-12-17T18:45:52.086Z,15.60
2017-12-17T18:48:19.716Z,14.80
2017-12-17T18:50:48.056Z,15.50
2017-12-17T18:53:15.650Z,14.93
2017-12-17T18:55:44.039Z,14.83
2017-12-17T18:58:12.394Z,14.07
2017-12-17T19:00:40.022Z,15.07
2017-12-17T19:03:07.701Z,14.47
2017-12-17T19:05:35.347Z,15.17
2017-12-17T19:08:02.935Z,14.90
2017-12-17T19:10:30.728Z,16.20
2017-12-17T19:12:59.277Z,16.27
2017-12-17T19:15:27.038Z,14.80
2017-12-17T19:17:54.761Z,17.57
2017-12-17T19:20:22.464Z,17.03
2017-12-17T19:22:50.058Z,17.20
2017-12-17T19:25:17.732Z,20.07
2017-12-17T19:27:45.411Z,19.90
2017-12-17T19:30:13.889Z,19.10
2017-12-17T19:32:42.470Z,20.90
2017-12-17T19:35:10.255Z,21.00
2017-12-17T19:37:37.912Z,21.93
2017-12-17T19:40:05.513Z,19.90
2017-12-17T19:42:33.338Z,21.27
2017-12-17T19:45:00.938Z,19.40
2017-12-17T19:47:28.588Z,20.97
2017-12-17T19:49:56.288Z,20.60
2017-12-17T19:52:24.120Z,22.20
2017-12-17T19:54:52.596Z,21.93
2017-12-17T19:57:20.351Z,20.40
2017-12-17T19:59:48.089Z,22.40
2017-12-17T20:02:15.711Z,23.07
2017-12-17T20:04:43.305Z,21.80
2017-12-17T20:07:11.772Z,20.57
2017-12-17T20:09:39.402Z,18.47
2017-12-17T20:12:07.021Z,19.40
2017-12-17T20:14:35.641Z,19.87
2017-12-17T20:17:03.377Z,21.50
2017-12-17T20:19:31.281Z,19.50
2017-12-17T20:21:59.022Z,18.83
2017-12-17T20:24:26.778Z,20.13
2017-12-17T20:26:54.855Z,19.80
2017-12-17T20:29:22.243Z,17.90
2017-12-17T20:31:49.850Z,19.40
2017-12-17T20:34:18.200Z,15.67
2017-12-17T20:36:46.067Z,17.70
2017-12-17T20:39:14.473Z,19.77
2017-12-17T20:41:42.876Z,20.00
2017-12-17T20:44:10.698Z,17.90
2017-12-17T20:46:38.403Z,21.53
2017-12-17T20:49:06.153Z,17.07
2017-12-17T20:51:34.509Z,20.00
2017-12-17T20:54:02.093Z,19.40
2017-12-17T20:56:30.476Z,20.00
2017-12-17T20:58:58.849Z,18.83
2017-12-17T21:01:27.222Z,19.03
2017-12-17T21:03:54.821Z,18.70
2017-12-17T21:06:22.521Z,17.83
2017-12-17T21:08:50.132Z,16.90
2017-12-17T21:11:18.491Z,16.73
2017-12-17T21:13:46.110Z,18.43
2017-12-17T21:16:13.731Z,19.53
2017-12-17T21:18:42.073Z,16.90
2017-12-17T21:21:09.719Z,18.00
2017-12-17T21:23:37.290Z,16.50
2017-12-17T21:26:05.134Z,15.13
2017-12-17T21:28:32.666Z,15.70
2017-12-17T21:31:00.388Z,17.50
2017-12-17T21:33:27.966Z,14.73
2017-12-17T21:35:55.570Z,14.00
2017-12-17T21:38:23.173Z,16.10
2017-12-17T21:40:50.798Z,15.30
2017-12-17T21:43:18.387Z,16.13
2017-12-17T21:45:45.978Z,14.63
2017-12-17T21:48:14.345Z,14.90
2017-12-17T21:50:42.002Z,14.60
2017-12-17T21:53:09.599Z,14.73
2017-12-17T21:55:37.162Z,14.73
2017-12-17T21:58:04.768Z,13.93
2017-12-17T22:00:32.636Z,12.87
2017-12-17T22:03:00.206Z,11.17
2017-12-17T22:05:27.787Z,11.73
2017-12-17T22:07:55.342Z,11.90
2017-12-17T22:10:22.934Z,11.20
2017-12-17T22:12:50.588Z,10.90
2017-12-17T22:15:18.956Z,10.40
2017-12-17T22:17:46.502Z,11.53
2017-12-17T22:20:14.087Z,9.70
2017-12-17T22:22:42.429Z,10.00
2017-12-17T22:25:10.022Z,8.70
2017-12-17T22:27:38.342Z,11.17
2017-12-17T22:30:05.921Z,10.07
2017-12-17T22:32:33.481Z,11.60
2017-12-17T22:35:01.066Z,8.80
2017-12-17T22:37:29.613Z,9.10
2017-12-17T22:39:57.237Z,9.63
2017-12-17T22:42:24.829Z,7.67
2017-12-17T22:44:52.483Z,8.63
2017-12-17T22:47:20.070Z,9.20
2017-12-17T22:49:47.646Z,8.27
2017-12-17T22:52:15.237Z,9.07
2017-12-17T22:54:44.013Z,9.17
2017-12-17T22:57:11.929Z,8.53
2017-12-17T22:59:39.521Z,7.87
2017-12-17T23:02:07.110Z,8.83
2017-12-17T23:04:35.525Z,8.07
2017-12-17T23:07:03.090Z,7.60
2017-12-17T23:09:30.660Z,9.03
2017-12-17T23:11:58.277Z,8.47
2017-12-17T23:14:25.858Z,7.67
2017-12-17T23:16:53.450Z,7.40
2017-12-17T23:19:20.999Z,7.57
2017-12-17T23:21:48.565Z,9.10
2017-12-17T23:24:16.914Z,7.03
2017-12-17T23:26:44.469Z,7.50
2017-12-17T23:29:12.068Z,7.40
2017-12-17T23:31:39.633Z,7.67
2017-12-17T23:34:07.238Z,6.60
2017-12-17T23:36:35.616Z,7.53
2017-12-17T23:39:03.139Z,6.90
2017-12-17T23:41:30.987Z,5.77
2017-12-17T23:43:58.586Z,6.27
2017-12-17T23:46:26.162Z,6.37
2017-12-17T23:48:54.486Z,6.37
2017-12-17T23:51:22.081Z,5.37
2017-12-17T23:53:49.666Z,5.63
2017-12-17T23:56:18.233Z,6.70
2017-12-17T23:58:45.805Z,6.60
